sensor_id;sensor_type;location;lat;lon;timestamp;temperature;humidity
11848;DHT22;5983;49.966;8.052;2023-06-01T00:01:05;16.20;99.90
11848;DHT22;5983;49.966;8.052;2023-06-01T00:03:32;16.20;99.90
11848;DHT22;5983;49.966;8.052;2023-06-01T00:06:04;16.10;99.90
11848;DHT22;5983;49.966;8.052;2023-06-01T00:08:31;16.00;99.90
11848;DHT22;5983;49.966;8.052;2023-06-01T00:10:58;15.90;99.90
11848;DHT22;5983;49.966;8.052;2023-06-01T00:13:25;15.80;99.90
11848;DHT22;5983;49.966;8.052;2023-06-01T00:15:52;15.80;99.90
11848;DHT22;5983;49.966;8.052;2023-06-01T00:18:19;15.70;99.90
11848;DHT22;5983;49.966;8.052;2023-06-01T00:20:46;15.70;99.90
11848;DHT22;5983;49.966;8.052;2023-06-01T00:23:14;15.70;99.90
11848;DHT22;5983;49.966;8.052;2023-06-01T00:25:41;15.70;99.90
11848;DHT22;5983;49.966;8.052;2023-06-01T00:28:08;15.60;99.90
11848;DHT22;5983;49.966;8.052;2023-06-01T00:30:34;15.60;99.90
11848;DHT22;5983;49.966;8.052;2023-06-01T00:33:01;15.40;99.90
11848;DHT22;5983;49.966;8.052;2023-06-01T00:35:28;15.40;99.90
11848;DHT22;5983;49.966;8.052;2023-06-01T00:37:55;15.40;99.90
11848;DHT22;5983;49.966;8.052;2023-06-01T00:40:23;15.30;99.90
11848;DHT22;5983;49.966;8.052;2023-06-01T00:42:50;15.30;99.90
11848;DHT22;5983;49.966;8.052;2023-06-01T00:45:17;15.30;99.90
11848;DHT22;5983;49.966;8.052;2023-06-01T00:47:44;15.30;99.90
11848;DHT22;5983;49.966;8.052;2023-06-01T00:50:11;15.20;99.90
11848;DHT22;5983;49.966;8.052;2023-06-01T00:52:40;15.20;99.90
11848;DHT22;5983;49.966;8.052;2023-06-01T00:55:10;15.20;99.90
11848;DHT22;5983;49.966;8.052;2023-06-01T00:57:38;15.20;99.90
11848;DHT22;5983;49.966;8.052;2023-06-01T01:00:09;15.20;99.90
11848;DHT22;5983;49.966;8.052;2023-06-01T01:02:38;15.20;99.90
11848;DHT22;5983;49.966;8.052;2023-06-01T01:05:06;15.20;99.90
11848;DHT22;5983;49.966;8.052;2023-06-01T01:07:46;15.20;99.90
11848;DHT22;5983;49.966;8.052;2023-06-01T01:10:25;15.20;99.90
11848;DHT22;5983;49.966;8.052;2023-06-01T01:13:03;15.10;99.90
11848;DHT22;5983;49.966;8.052;2023-06-01T01:15:44;15.10;99.90
11848;DHT22;5983;49.966;8.052;2023-06-01T01:18:25;15.00;99.90
11848;DHT22;5983;49.966;8.052;2023-06-01T01:21:00;15.10;99.90
11848;DHT22;5983;49.966;8.052;2023-06-01T01:24:05;15.00;99.90
11848;DHT22;5983;49.966;8.052;2023-06-01T01:26:51;14.90;99.90
11848;DHT22;5983;49.966;8.052;2023-06-01T01:29:23;14.80;99.90
11848;DHT22;5983;49.966;8.052;2023-06-01T01:31:56;14.70;99.90
11848;DHT22;5983;49.966;8.052;2023-06-01T01:34:27;14.70;99.90
11848;DHT22;5983;49.966;8.052;2023-06-01T01:36:55;14.60;99.90
11848;DHT22;5983;49.966;8.052;2023-06-01T01:39:22;14.60;99.90
11848;DHT22;5983;49.966;8.052;2023-06-01T01:41:49;14.60;99.90
11848;DHT22;5983;49.966;8.052;2023-06-01T01:44:16;14.70;99.90
11848;DHT22;5983;49.966;8.052;2023-06-01T01:46:52;14.60;99.90
11848;DHT22;5983;49.966;8.052;2023-06-01T01:49:27;14.60;99.90
11848;DHT22;5983;49.966;8.052;2023-06-01T01:52:03;14.50;99.90
11848;DHT22;5983;49.966;8.052;2023-06-01T01:54:37;14.50;99.90
11848;DHT22;5983;49.966;8.052;2023-06-01T01:57:08;14.50;99.90
11848;DHT22;5983;49.966;8.052;2023-06-01T01:59:36;14.50;99.90
11848;DHT22;5983;49.966;8.052;2023-06-01T02:02:05;14.50;99.90
11848;DHT22;5983;49.966;8.052;2023-06-01T02:04:32;14.40;99.90
11848;DHT22;5983;49.966;8.052;2023-06-01T02:06:59;14.30;99.90
11848;DHT22;5983;49.966;8.052;2023-06-01T02:09:26;14.30;99.90
11848;DHT22;5983;49.966;8.052;2023-06-01T02:11:53;14.20;99.90
11848;DHT22;5983;49.966;8.052;2023-06-01T02:14:19;14.20;99.90
11848;DHT22;5983;49.966;8.052;2023-06-01T02:16:46;14.20;99.90
11848;DHT22;5983;49.966;8.052;2023-06-01T02:19:15;14.10;99.90
11848;DHT22;5983;49.966;8.052;2023-06-01T02:21:42;14.10;99.90
11848;DHT22;5983;49.966;8.052;2023-06-01T02:24:09;14.00;99.90
11848;DHT22;5983;49.966;8.052;2023-06-01T02:26:36;13.90;99.90
11848;DHT22;5983;49.966;8.052;2023-06-01T02:29:03;13.80;99.90
11848;DHT22;5983;49.966;8.052;2023-06-01T02:31:31;13.80;99.90
11848;DHT22;5983;49.966;8.052;2023-06-01T02:33:58;13.80;99.90
11848;DHT22;5983;49.966;8.052;2023-06-01T02:36:27;13.80;99.90
11848;DHT22;5983;49.966;8.052;2023-06-01T02:38:55;13.80;99.90
11848;DHT22;5983;49.966;8.052;2023-06-01T02:41:22;13.80;99.90
11848;DHT22;5983;49.966;8.052;2023-06-01T02:43:49;13.80;99.90
11848;DHT22;5983;49.966;8.052;2023-06-01T02:46:17;13.70;99.90
11848;DHT22;5983;49.966;8.052;2023-06-01T02:48:44;13.70;99.90
11848;DHT22;5983;49.966;8.052;2023-06-01T02:51:11;13.60;99.90
11848;DHT22;5983;49.966;8.052;2023-06-01T02:53:41;13.60;99.90
11848;DHT22;5983;49.966;8.052;2023-06-01T02:56:08;13.60;99.90
11848;DHT22;5983;49.966;8.052;2023-06-01T02:58:35;13.50;99.90
11848;DHT22;5983;49.966;8.052;2023-06-01T03:01:02;13.50;99.90
11848;DHT22;5983;49.966;8.052;2023-06-01T03:03:30;13.50;99.90
11848;DHT22;5983;49.966;8.052;2023-06-01T03:05:57;13.50;99.90
11848;DHT22;5983;49.966;8.052;2023-06-01T03:08:24;13.50;99.90
11848;DHT22;5983;49.966;8.052;2023-06-01T03:10:52;13.50;99.90
11848;DHT22;5983;49.966;8.052;2023-06-01T03:13:19;13.40;99.90
11848;DHT22;5983;49.966;8.052;2023-06-01T03:15:46;13.40;99.90
11848;DHT22;5983;49.966;8.052;2023-06-01T03:18:13;13.30;99.90
11848;DHT22;5983;49.966;8.052;2023-06-01T03:20:41;13.20;99.90
11848;DHT22;5983;49.966;8.052;2023-06-01T03:23:08;13.20;99.90
11848;DHT22;5983;49.966;8.052;2023-06-01T03:25:35;13.20;99.90
11848;DHT22;5983;49.966;8.052;2023-06-01T03:28:03;13.20;99.90
11848;DHT22;5983;49.966;8.052;2023-06-01T03:30:31;13.20;99.90
11848;DHT22;5983;49.966;8.052;2023-06-01T03:32:57;13.20;99.90
11848;DHT22;5983;49.966;8.052;2023-06-01T03:35:25;13.20;99.90
11848;DHT22;5983;49.966;8.052;2023-06-01T03:37:51;13.20;99.90
11848;DHT22;5983;49.966;8.052;2023-06-01T03:40:18;13.20;99.90
11848;DHT22;5983;49.966;8.052;2023-06-01T03:42:46;13.20;99.90
11848;DHT22;5983;49.966;8.052;2023-06-01T03:45:16;13.20;99.90
11848;DHT22;5983;49.966;8.052;2023-06-01T03:47:43;13.20;99.90
11848;DHT22;5983;49.966;8.052;2023-06-01T03:50:10;13.20;99.90
11848;DHT22;5983;49.966;8.052;2023-06-01T03:52:38;13.20;99.90
11848;DHT22;5983;49.966;8.052;2023-06-01T03:55:07;13.10;99.90
11848;DHT22;5983;49.966;8.052;2023-06-01T03:57:35;13.10;99.90
11848;DHT22;5983;49.966;8.052;2023-06-01T04:00:03;13.10;99.90
11848;DHT22;5983;49.966;8.052;2023-06-01T04:02:45;13.20;99.90
11848;DHT22;5983;49.966;8.052;2023-06-01T04:05:14;13.30;99.90
11848;DHT22;5983;49.966;8.052;2023-06-01T04:07:43;13.30;99.90
11848;DHT22;5983;49.966;8.052;2023-06-01T04:10:12;13.40;99.90
11848;DHT22;5983;49.966;8.052;2023-06-01T04:12:40;13.40;99.90
11848;DHT22;5983;49.966;8.052;2023-06-01T04:15:09;13.40;99.90
11848;DHT22;5983;49.966;8.052;2023-06-01T04:17:37;13.50;99.90
11848;DHT22;5983;49.966;8.052;2023-06-01T04:20:08;13.50;99.90
11848;DHT22;5983;49.966;8.052;2023-06-01T04:22:36;13.50;99.90
11848;DHT22;5983;49.966;8.052;2023-06-01T04:25:05;13.50;99.90
11848;DHT22;5983;49.966;8.052;2023-06-01T04:27:34;13.40;99.90
11848;DHT22;5983;49.966;8.052;2023-06-01T04:30:04;13.50;99.90
11848;DHT22;5983;49.966;8.052;2023-06-01T04:32:33;13.50;99.90
11848;DHT22;5983;49.966;8.052;2023-06-01T04:35:05;13.60;99.90
11848;DHT22;5983;49.966;8.052;2023-06-01T04:37:34;13.70;99.90
11848;DHT22;5983;49.966;8.052;2023-06-01T04:40:03;13.70;99.90
11848;DHT22;5983;49.966;8.052;2023-06-01T04:42:33;13.80;99.90
11848;DHT22;5983;49.966;8.052;2023-06-01T04:45:01;13.90;99.90
11848;DHT22;5983;49.966;8.052;2023-06-01T04:47:30;14.10;99.90
11848;DHT22;5983;49.966;8.052;2023-06-01T04:49:57;14.10;99.90
11848;DHT22;5983;49.966;8.052;2023-06-01T04:52:25;14.20;99.90
11848;DHT22;5983;49.966;8.052;2023-06-01T04:54:52;14.30;99.90
11848;DHT22;5983;49.966;8.052;2023-06-01T04:57:19;14.50;99.90
11848;DHT22;5983;49.966;8.052;2023-06-01T04:59:45;14.60;99.90
11848;DHT22;5983;49.966;8.052;2023-06-01T05:02:13;14.70;99.90
11848;DHT22;5983;49.966;8.052;2023-06-01T05:04:39;14.80;99.90
11848;DHT22;5983;49.966;8.052;2023-06-01T05:07:06;14.90;99.90
11848;DHT22;5983;49.966;8.052;2023-06-01T05:09:34;15.00;99.90
11848;DHT22;5983;49.966;8.052;2023-06-01T05:12:01;15.10;99.90
11848;DHT22;5983;49.966;8.052;2023-06-01T05:14:28;15.20;99.90
11848;DHT22;5983;49.966;8.052;2023-06-01T05:16:55;15.30;99.90
11848;DHT22;5983;49.966;8.052;2023-06-01T05:19:22;15.40;99.90
11848;DHT22;5983;49.966;8.052;2023-06-01T05:21:49;15.50;99.90
11848;DHT22;5983;49.966;8.052;2023-06-01T05:24:16;15.60;99.90
11848;DHT22;5983;49.966;8.052;2023-06-01T05:26:44;15.70;99.90
11848;DHT22;5983;49.966;8.052;2023-06-01T05:29:11;15.70;99.90
11848;DHT22;5983;49.966;8.052;2023-06-01T05:31:38;15.80;99.90
11848;DHT22;5983;49.966;8.052;2023-06-01T05:34:06;15.90;99.90
11848;DHT22;5983;49.966;8.052;2023-06-01T05:36:33;16.10;99.90
11848;DHT22;5983;49.966;8.052;2023-06-01T05:39:00;16.20;99.90
11848;DHT22;5983;49.966;8.052;2023-06-01T05:41:28;16.30;99.90
11848;DHT22;5983;49.966;8.052;2023-06-01T05:43:56;16.50;99.90
11848;DHT22;5983;49.966;8.052;2023-06-01T05:46:23;16.60;99.90
11848;DHT22;5983;49.966;8.052;2023-06-01T05:48:50;16.70;99.90
11848;DHT22;5983;49.966;8.052;2023-06-01T05:51:17;16.80;99.90
11848;DHT22;5983;49.966;8.052;2023-06-01T05:53:44;16.90;99.90
11848;DHT22;5983;49.966;8.052;2023-06-01T05:56:11;17.10;99.90
11848;DHT22;5983;49.966;8.052;2023-06-01T05:58:38;17.20;99.90
11848;DHT22;5983;49.966;8.052;2023-06-01T06:01:07;17.30;99.90
11848;DHT22;5983;49.966;8.052;2023-06-01T06:03:34;17.50;99.90
11848;DHT22;5983;49.966;8.052;2023-06-01T06:06:01;17.60;99.90
11848;DHT22;5983;49.966;8.052;2023-06-01T06:08:29;17.80;99.90
11848;DHT22;5983;49.966;8.052;2023-06-01T06:10:56;18.00;99.90
11848;DHT22;5983;49.966;8.052;2023-06-01T06:13:22;18.20;99.90
11848;DHT22;5983;49.966;8.052;2023-06-01T06:15:50;18.30;99.90
11848;DHT22;5983;49.966;8.052;2023-06-01T06:18:18;18.40;99.90
11848;DHT22;5983;49.966;8.052;2023-06-01T06:20:46;18.50;99.90
11848;DHT22;5983;49.966;8.052;2023-06-01T06:23:13;18.60;99.90
11848;DHT22;5983;49.966;8.052;2023-06-01T06:25:40;18.70;99.90
11848;DHT22;5983;49.966;8.052;2023-06-01T06:28:08;18.80;99.90
11848;DHT22;5983;49.966;8.052;2023-06-01T06:30:35;18.90;99.90
11848;DHT22;5983;49.966;8.052;2023-06-01T06:33:02;19.00;99.90
11848;DHT22;5983;49.966;8.052;2023-06-01T06:35:30;19.00;99.90
11848;DHT22;5983;49.966;8.052;2023-06-01T06:37:57;19.10;99.90
11848;DHT22;5983;49.966;8.052;2023-06-01T06:40:24;19.30;99.90
11848;DHT22;5983;49.966;8.052;2023-06-01T06:42:51;19.30;99.90
11848;DHT22;5983;49.966;8.052;2023-06-01T06:45:18;19.50;99.90
11848;DHT22;5983;49.966;8.052;2023-06-01T06:47:45;19.60;99.90
11848;DHT22;5983;49.966;8.052;2023-06-01T06:50:12;19.80;99.90
11848;DHT22;5983;49.966;8.052;2023-06-01T06:52:41;20.00;99.90
11848;DHT22;5983;49.966;8.052;2023-06-01T06:55:08;20.10;99.90
11848;DHT22;5983;49.966;8.052;2023-06-01T06:57:35;20.20;99.90
11848;DHT22;5983;49.966;8.052;2023-06-01T07:00:05;20.30;99.90
11848;DHT22;5983;49.966;8.052;2023-06-01T07:02:34;20.40;99.90
11848;DHT22;5983;49.966;8.052;2023-06-01T07:05:01;20.50;99.90
11848;DHT22;5983;49.966;8.052;2023-06-01T07:07:29;20.60;99.90
11848;DHT22;5983;49.966;8.052;2023-06-01T07:09:57;20.80;99.90
11848;DHT22;5983;49.966;8.052;2023-06-01T07:12:24;20.90;99.90
11848;DHT22;5983;49.966;8.052;2023-06-01T07:14:51;21.10;99.90
11848;DHT22;5983;49.966;8.052;2023-06-01T07:17:18;21.20;99.90
11848;DHT22;5983;49.966;8.052;2023-06-01T07:19:45;21.20;99.90
11848;DHT22;5983;49.966;8.052;2023-06-01T07:22:12;21.40;99.90
11848;DHT22;5983;49.966;8.052;2023-06-01T07:24:39;21.50;99.90
11848;DHT22;5983;49.966;8.052;2023-06-01T07:27:07;21.50;99.90
11848;DHT22;5983;49.966;8.052;2023-06-01T07:29:34;21.70;99.90
11848;DHT22;5983;49.966;8.052;2023-06-01T07:32:01;21.80;99.90
11848;DHT22;5983;49.966;8.052;2023-06-01T07:34:28;21.90;99.90
11848;DHT22;5983;49.966;8.052;2023-06-01T07:36:55;22.00;99.90
11848;DHT22;5983;49.966;8.052;2023-06-01T07:39:24;22.20;99.90
11848;DHT22;5983;49.966;8.052;2023-06-01T07:41:51;22.30;99.90
11848;DHT22;5983;49.966;8.052;2023-06-01T07:44:20;22.40;99.90
11848;DHT22;5983;49.966;8.052;2023-06-01T07:46:48;22.50;99.90
11848;DHT22;5983;49.966;8.052;2023-06-01T07:49:15;22.60;99.90
11848;DHT22;5983;49.966;8.052;2023-06-01T07:51:42;22.70;99.90
11848;DHT22;5983;49.966;8.052;2023-06-01T07:54:10;22.70;99.90
11848;DHT22;5983;49.966;8.052;2023-06-01T07:56:37;22.90;99.90
11848;DHT22;5983;49.966;8.052;2023-06-01T07:59:05;23.00;99.90
11848;DHT22;5983;49.966;8.052;2023-06-01T08:01:34;23.00;99.90
11848;DHT22;5983;49.966;8.052;2023-06-01T08:04:00;23.20;99.90
11848;DHT22;5983;49.966;8.052;2023-06-01T08:06:28;23.30;98.10
11848;DHT22;5983;49.966;8.052;2023-06-01T08:09:01;23.40;98.60
11848;DHT22;5983;49.966;8.052;2023-06-01T08:11:29;23.50;98.20
11848;DHT22;5983;49.966;8.052;2023-06-01T08:13:56;23.60;98.20
11848;DHT22;5983;49.966;8.052;2023-06-01T08:16:25;23.80;98.50
11848;DHT22;5983;49.966;8.052;2023-06-01T08:18:54;23.80;98.00
11848;DHT22;5983;49.966;8.052;2023-06-01T08:21:22;23.90;97.20
11848;DHT22;5983;49.966;8.052;2023-06-01T08:23:49;24.10;96.40
11848;DHT22;5983;49.966;8.052;2023-06-01T08:26:18;24.20;95.60
11848;DHT22;5983;49.966;8.052;2023-06-01T08:28:45;24.20;96.20
11848;DHT22;5983;49.966;8.052;2023-06-01T08:31:17;24.30;96.70
11848;DHT22;5983;49.966;8.052;2023-06-01T08:33:44;24.40;95.90
11848;DHT22;5983;49.966;8.052;2023-06-01T08:36:13;24.50;96.50
11848;DHT22;5983;49.966;8.052;2023-06-01T08:38:41;24.70;97.10
11848;DHT22;5983;49.966;8.052;2023-06-01T08:41:14;24.90;97.80
11848;DHT22;5983;49.966;8.052;2023-06-01T08:43:54;25.00;97.30
11848;DHT22;5983;49.966;8.052;2023-06-01T08:46:25;25.10;97.50
11848;DHT22;5983;49.966;8.052;2023-06-01T08:48:54;25.20;97.20
11848;DHT22;5983;49.966;8.052;2023-06-01T08:51:24;25.20;97.00
11848;DHT22;5983;49.966;8.052;2023-06-01T08:53:53;25.30;94.80
11848;DHT22;5983;49.966;8.052;2023-06-01T08:56:23;25.30;93.30
11848;DHT22;5983;49.966;8.052;2023-06-01T08:58:51;25.40;92.80
11848;DHT22;5983;49.966;8.052;2023-06-01T09:01:19;25.50;92.70
11848;DHT22;5983;49.966;8.052;2023-06-01T09:03:47;25.60;92.70
11848;DHT22;5983;49.966;8.052;2023-06-01T09:06:16;25.60;92.40
11848;DHT22;5983;49.966;8.052;2023-06-01T09:08:45;25.70;89.80
11848;DHT22;5983;49.966;8.052;2023-06-01T09:11:12;25.80;90.30
11848;DHT22;5983;49.966;8.052;2023-06-01T09:13:40;25.90;90.40
11848;DHT22;5983;49.966;8.052;2023-06-01T09:16:07;26.00;88.50
11848;DHT22;5983;49.966;8.052;2023-06-01T09:18:35;26.10;86.80
11848;DHT22;5983;49.966;8.052;2023-06-01T09:21:11;26.20;85.30
11848;DHT22;5983;49.966;8.052;2023-06-01T09:23:41;26.20;84.70
11848;DHT22;5983;49.966;8.052;2023-06-01T09:26:11;26.20;83.00
11848;DHT22;5983;49.966;8.052;2023-06-01T09:28:55;26.30;81.70
11848;DHT22;5983;49.966;8.052;2023-06-01T09:31:37;26.30;81.10
11848;DHT22;5983;49.966;8.052;2023-06-01T09:34:05;26.40;80.40
11848;DHT22;5983;49.966;8.052;2023-06-01T09:36:33;26.40;77.80
11848;DHT22;5983;49.966;8.052;2023-06-01T09:39:03;26.50;75.50
11848;DHT22;5983;49.966;8.052;2023-06-01T09:41:50;26.60;74.80
11848;DHT22;5983;49.966;8.052;2023-06-01T09:44:25;26.70;77.00
11848;DHT22;5983;49.966;8.052;2023-06-01T09:46:54;26.80;76.70
11848;DHT22;5983;49.966;8.052;2023-06-01T09:49:24;26.90;74.20
11848;DHT22;5983;49.966;8.052;2023-06-01T09:51:53;27.00;72.40
11848;DHT22;5983;49.966;8.052;2023-06-01T09:54:36;27.10;72.00
11848;DHT22;5983;49.966;8.052;2023-06-01T09:57:07;27.10;73.40
11848;DHT22;5983;49.966;8.052;2023-06-01T09:59:39;27.20;72.80
11848;DHT22;5983;49.966;8.052;2023-06-01T10:02:10;27.30;72.50
11848;DHT22;5983;49.966;8.052;2023-06-01T10:04:41;27.30;70.50
11848;DHT22;5983;49.966;8.052;2023-06-01T10:07:13;27.40;69.30
11848;DHT22;5983;49.966;8.052;2023-06-01T10:09:41;27.50;68.50
11848;DHT22;5983;49.966;8.052;2023-06-01T10:12:12;27.50;67.90
11848;DHT22;5983;49.966;8.052;2023-06-01T10:14:39;27.60;70.00
11848;DHT22;5983;49.966;8.052;2023-06-01T10:17:07;27.60;69.40
11848;DHT22;5983;49.966;8.052;2023-06-01T10:19:36;27.60;68.30
11848;DHT22;5983;49.966;8.052;2023-06-01T10:22:04;27.70;70.20
11848;DHT22;5983;49.966;8.052;2023-06-01T10:24:32;27.60;68.40
11848;DHT22;5983;49.966;8.052;2023-06-01T10:27:07;27.70;68.10
11848;DHT22;5983;49.966;8.052;2023-06-01T10:29:41;27.80;69.50
11848;DHT22;5983;49.966;8.052;2023-06-01T10:32:43;27.90;69.20
11848;DHT22;5983;49.966;8.052;2023-06-01T10:38:30;28.30;66.00
11848;DHT22;5983;49.966;8.052;2023-06-01T10:41:24;28.40;67.10
11848;DHT22;5983;49.966;8.052;2023-06-01T10:43:54;28.40;67.00
11848;DHT22;5983;49.966;8.052;2023-06-01T10:46:40;28.30;65.40
11848;DHT22;5983;49.966;8.052;2023-06-01T10:49:08;28.40;66.10
11848;DHT22;5983;49.966;8.052;2023-06-01T10:51:37;28.50;64.20
11848;DHT22;5983;49.966;8.052;2023-06-01T10:54:27;28.40;64.20
11848;DHT22;5983;49.966;8.052;2023-06-01T10:57:17;28.40;64.20
11848;DHT22;5983;49.966;8.052;2023-06-01T11:00:10;28.40;62.70
11848;DHT22;5983;49.966;8.052;2023-06-01T11:02:44;28.40;63.20
11848;DHT22;5983;49.966;8.052;2023-06-01T11:05:38;28.40;63.50
11848;DHT22;5983;49.966;8.052;2023-06-01T11:08:08;28.50;64.00
11848;DHT22;5983;49.966;8.052;2023-06-01T11:10:54;28.60;63.10
11848;DHT22;5983;49.966;8.052;2023-06-01T11:13:27;28.60;62.10
11848;DHT22;5983;49.966;8.052;2023-06-01T11:16:29;28.60;62.20
11848;DHT22;5983;49.966;8.052;2023-06-01T11:18:58;28.70;63.90
11848;DHT22;5983;49.966;8.052;2023-06-01T11:21:27;28.80;62.90
11848;DHT22;5983;49.966;8.052;2023-06-01T11:23:58;28.80;62.90
11848;DHT22;5983;49.966;8.052;2023-06-01T11:26:29;28.80;63.60
11848;DHT22;5983;49.966;8.052;2023-06-01T11:29:06;28.90;63.60
11848;DHT22;5983;49.966;8.052;2023-06-01T11:31:36;29.00;62.40
11848;DHT22;5983;49.966;8.052;2023-06-01T11:34:04;28.90;62.50
11848;DHT22;5983;49.966;8.052;2023-06-01T11:36:41;28.90;62.60
11848;DHT22;5983;49.966;8.052;2023-06-01T11:39:21;29.00;62.30
11848;DHT22;5983;49.966;8.052;2023-06-01T11:41:52;29.10;61.50
11848;DHT22;5983;49.966;8.052;2023-06-01T11:44:30;29.20;58.20
11848;DHT22;5983;49.966;8.052;2023-06-01T11:46:57;29.10;57.90
11848;DHT22;5983;49.966;8.052;2023-06-01T11:49:25;29.10;58.90
11848;DHT22;5983;49.966;8.052;2023-06-01T11:51:52;29.20;60.20
11848;DHT22;5983;49.966;8.052;2023-06-01T11:54:23;29.20;59.70
11848;DHT22;5983;49.966;8.052;2023-06-01T11:56:52;29.20;58.70
11848;DHT22;5983;49.966;8.052;2023-06-01T11:59:21;29.30;58.00
11848;DHT22;5983;49.966;8.052;2023-06-01T12:01:49;29.30;58.50
11848;DHT22;5983;49.966;8.052;2023-06-01T12:04:21;29.30;58.40
11848;DHT22;5983;49.966;8.052;2023-06-01T12:06:50;29.30;58.40
11848;DHT22;5983;49.966;8.052;2023-06-01T12:09:17;29.10;58.40
11848;DHT22;5983;49.966;8.052;2023-06-01T12:11:47;29.20;57.40
11848;DHT22;5983;49.966;8.052;2023-06-01T12:14:15;29.10;57.00
11848;DHT22;5983;49.966;8.052;2023-06-01T12:16:55;29.10;57.50
11848;DHT22;5983;49.966;8.052;2023-06-01T12:19:24;29.10;58.60
11848;DHT22;5983;49.966;8.052;2023-06-01T12:21:52;29.20;57.00
11848;DHT22;5983;49.966;8.052;2023-06-01T12:24:28;29.10;56.80
11848;DHT22;5983;49.966;8.052;2023-06-01T12:27:00;29.10;55.60
11848;DHT22;5983;49.966;8.052;2023-06-01T12:29:37;29.10;54.80
11848;DHT22;5983;49.966;8.052;2023-06-01T12:32:07;29.00;54.40
11848;DHT22;5983;49.966;8.052;2023-06-01T12:34:35;29.00;53.90
11848;DHT22;5983;49.966;8.052;2023-06-01T12:37:15;29.00;54.40
11848;DHT22;5983;49.966;8.052;2023-06-01T12:39:43;29.00;54.00
11848;DHT22;5983;49.966;8.052;2023-06-01T12:42:33;29.00;53.10
11848;DHT22;5983;49.966;8.052;2023-06-01T12:45:02;28.90;51.60
11848;DHT22;5983;49.966;8.052;2023-06-01T12:47:35;28.80;51.70
11848;DHT22;5983;49.966;8.052;2023-06-01T12:50:04;28.80;52.00
11848;DHT22;5983;49.966;8.052;2023-06-01T12:52:32;28.90;53.40
11848;DHT22;5983;49.966;8.052;2023-06-01T12:54:59;28.90;55.20
11848;DHT22;5983;49.966;8.052;2023-06-01T12:57:29;28.90;55.50
11848;DHT22;5983;49.966;8.052;2023-06-01T12:59:56;28.90;55.30
11848;DHT22;5983;49.966;8.052;2023-06-01T13:02:23;28.90;54.50
11848;DHT22;5983;49.966;8.052;2023-06-01T13:04:51;29.00;53.30
11848;DHT22;5983;49.966;8.052;2023-06-01T13:07:19;28.90;53.00
11848;DHT22;5983;49.966;8.052;2023-06-01T13:09:48;29.00;52.60
11848;DHT22;5983;49.966;8.052;2023-06-01T13:12:15;28.90;53.30
11848;DHT22;5983;49.966;8.052;2023-06-01T13:14:44;28.90;55.40
11848;DHT22;5983;49.966;8.052;2023-06-01T13:17:11;29.00;57.60
11848;DHT22;5983;49.966;8.052;2023-06-01T13:19:38;29.00;59.40
11848;DHT22;5983;49.966;8.052;2023-06-01T13:22:05;29.10;59.50
11848;DHT22;5983;49.966;8.052;2023-06-01T13:24:32;29.10;59.00
11848;DHT22;5983;49.966;8.052;2023-06-01T13:26:59;29.10;58.90
11848;DHT22;5983;49.966;8.052;2023-06-01T13:29:29;29.00;59.00
11848;DHT22;5983;49.966;8.052;2023-06-01T13:31:57;28.90;59.70
11848;DHT22;5983;49.966;8.052;2023-06-01T13:34:24;28.80;59.60
11848;DHT22;5983;49.966;8.052;2023-06-01T13:36:51;28.80;59.80
11848;DHT22;5983;49.966;8.052;2023-06-01T13:39:18;28.80;60.30
11848;DHT22;5983;49.966;8.052;2023-06-01T13:41:45;28.80;60.70
11848;DHT22;5983;49.966;8.052;2023-06-01T13:44:12;28.80;60.40
11848;DHT22;5983;49.966;8.052;2023-06-01T13:46:39;28.80;60.30
11848;DHT22;5983;49.966;8.052;2023-06-01T13:49:07;28.70;58.90
11848;DHT22;5983;49.966;8.052;2023-06-01T13:51:35;28.70;59.40
11848;DHT22;5983;49.966;8.052;2023-06-01T13:54:03;28.80;59.90
11848;DHT22;5983;49.966;8.052;2023-06-01T13:56:31;28.80;59.70
11848;DHT22;5983;49.966;8.052;2023-06-01T13:58:58;28.80;59.60
11848;DHT22;5983;49.966;8.052;2023-06-01T14:01:25;28.70;60.20
11848;DHT22;5983;49.966;8.052;2023-06-01T14:03:53;28.70;60.30
11848;DHT22;5983;49.966;8.052;2023-06-01T14:06:21;28.60;60.40
11848;DHT22;5983;49.966;8.052;2023-06-01T14:08:48;28.60;59.40
11848;DHT22;5983;49.966;8.052;2023-06-01T14:11:15;28.50;59.20
11848;DHT22;5983;49.966;8.052;2023-06-01T14:13:42;28.60;59.90
11848;DHT22;5983;49.966;8.052;2023-06-01T14:16:09;28.60;59.40
11848;DHT22;5983;49.966;8.052;2023-06-01T14:18:37;28.50;58.90
11848;DHT22;5983;49.966;8.052;2023-06-01T14:21:04;28.50;58.50
11848;DHT22;5983;49.966;8.052;2023-06-01T14:23:32;28.50;58.20
11848;DHT22;5983;49.966;8.052;2023-06-01T14:25:59;28.40;58.60
11848;DHT22;5983;49.966;8.052;2023-06-01T14:28:26;28.40;59.40
11848;DHT22;5983;49.966;8.052;2023-06-01T14:30:53;28.50;58.50
11848;DHT22;5983;49.966;8.052;2023-06-01T14:33:20;28.40;60.40
11848;DHT22;5983;49.966;8.052;2023-06-01T14:35:47;28.30;61.20
11848;DHT22;5983;49.966;8.052;2023-06-01T14:38:14;28.30;60.90
11848;DHT22;5983;49.966;8.052;2023-06-01T14:40:42;28.20;62.00
11848;DHT22;5983;49.966;8.052;2023-06-01T14:43:09;28.20;62.80
11848;DHT22;5983;49.966;8.052;2023-06-01T14:45:36;28.20;63.00
11848;DHT22;5983;49.966;8.052;2023-06-01T14:48:03;28.20;62.70
11848;DHT22;5983;49.966;8.052;2023-06-01T14:50:30;28.10;62.70
11848;DHT22;5983;49.966;8.052;2023-06-01T14:52:57;28.10;63.50
11848;DHT22;5983;49.966;8.052;2023-06-01T14:55:25;28.10;64.70
11848;DHT22;5983;49.966;8.052;2023-06-01T14:57:53;28.00;63.90
11848;DHT22;5983;49.966;8.052;2023-06-01T15:00:21;28.00;64.10
11848;DHT22;5983;49.966;8.052;2023-06-01T15:02:48;28.00;64.70
11848;DHT22;5983;49.966;8.052;2023-06-01T15:05:15;27.90;64.20
11848;DHT22;5983;49.966;8.052;2023-06-01T15:07:42;27.90;63.10
11848;DHT22;5983;49.966;8.052;2023-06-01T15:10:09;27.80;62.80
11848;DHT22;5983;49.966;8.052;2023-06-01T15:12:36;27.80;63.40
11848;DHT22;5983;49.966;8.052;2023-06-01T15:15:05;27.70;65.40
11848;DHT22;5983;49.966;8.052;2023-06-01T15:17:33;27.70;66.60
11848;DHT22;5983;49.966;8.052;2023-06-01T15:20:00;27.70;67.50
11848;DHT22;5983;49.966;8.052;2023-06-01T15:22:27;27.60;68.30
11848;DHT22;5983;49.966;8.052;2023-06-01T15:24:54;27.60;69.30
11848;DHT22;5983;49.966;8.052;2023-06-01T15:27:20;27.50;69.80
11848;DHT22;5983;49.966;8.052;2023-06-01T15:29:47;27.50;69.50
11848;DHT22;5983;49.966;8.052;2023-06-01T15:32:16;27.50;69.00
11848;DHT22;5983;49.966;8.052;2023-06-01T15:34:43;27.50;69.30
11848;DHT22;5983;49.966;8.052;2023-06-01T15:37:11;27.40;70.20
11848;DHT22;5983;49.966;8.052;2023-06-01T15:39:38;27.40;71.10
11848;DHT22;5983;49.966;8.052;2023-06-01T15:42:08;27.30;71.50
11848;DHT22;5983;49.966;8.052;2023-06-01T15:44:38;27.30;72.60
11848;DHT22;5983;49.966;8.052;2023-06-01T15:47:07;27.20;72.70
11848;DHT22;5983;49.966;8.052;2023-06-01T15:49:35;27.10;73.10
11848;DHT22;5983;49.966;8.052;2023-06-01T15:52:03;27.10;72.90
11848;DHT22;5983;49.966;8.052;2023-06-01T15:54:31;27.00;72.30
11848;DHT22;5983;49.966;8.052;2023-06-01T15:56:58;27.00;72.00
11848;DHT22;5983;49.966;8.052;2023-06-01T15:59:25;26.90;72.20
11848;DHT22;5983;49.966;8.052;2023-06-01T16:01:52;26.90;72.30